Hauptseite
METAR-TAF:

METAR-TAF

Flughäfen :

Flughafen Sylt

Westerland, Deutschland

Breite: 54-55N, Länge: 008-21E, Höhe: 16 m

Beobachtung

Neuester Wetterbericht von vor 46 Minuten, um 23:50 UTC
Wind 12 kt aus Süd/Südost
Temperatur 2°C
Luftfeuchtigkeit 87%
Luftdruck 1036 hPa
Sichtweite 10 km oder mehr

METAR: EDXW 042350Z AUTO 16012KT 9999 // SCT052/// BKN059/// OVC074/// 02/M00 Q1036

Zeit: 01:36 (00:36 UTC)

Prognose

Neuester Wetterbericht von vor 10 Stunden und 36 Minuten, um 14:00 UTC
Gültige Prognose vom 04 um 15 UTC bis 04 um 18 UTC
Wind 8 kt aus Süd/Südost
Sichtweite 10 km oder mehr
Leicht bewölkt in der Höhe von 1500 ft

TAF: EDXW 041400Z 0415/0418 15008KT 9999 FEW015

Wetterbeobachtungen und Prognosen von mehr als 4000 Flughäfen (METAR und TAF Bericht).

Die verfügbaren Stationen werden durch gelbe und rote Markierungen auf der Karte dargestellt.

Führen Sie die Maus auf sie, um den Namen der Station zu sehen.

Darauf klicken, um die Beobachtung von Wetterbeobachtungen und Prognosen zu sehen.

Um die Karte zu ändern : klicken Sie auf den grünen Tasten mit einem schwarzen Kreuz Zum Vergrößern, auf den grünen Button mit einem Gedankenstrich zu verkleinern, oder auf die grünen Pfeile für benachbarte Karten.


METAR-TAF: